sensor_id;sensor_type;location;lat;lon;timestamp;temperature;humidity
33741;DHT22;20065;48.380;10.892;2022-12-20T00:01:12;2.20;99.90
33741;DHT22;20065;48.380;10.892;2022-12-20T00:04:00;2.20;99.90
33741;DHT22;20065;48.380;10.892;2022-12-20T00:06:47;2.20;99.90
33741;DHT22;20065;48.380;10.892;2022-12-20T00:09:33;2.20;99.90
33741;DHT22;20065;48.380;10.892;2022-12-20T00:12:19;2.20;99.90
33741;DHT22;20065;48.380;10.892;2022-12-20T00:15:08;2.20;99.90
33741;DHT22;20065;48.380;10.892;2022-12-20T00:17:55;2.20;99.90
33741;DHT22;20065;48.380;10.892;2022-12-20T00:20:41;2.20;99.90
33741;DHT22;20065;48.380;10.892;2022-12-20T00:23:27;2.20;99.90
33741;DHT22;20065;48.380;10.892;2022-12-20T00:26:17;2.20;99.90
33741;DHT22;20065;48.380;10.892;2022-12-20T00:29:05;2.20;99.90
33741;DHT22;20065;48.380;10.892;2022-12-20T00:31:51;2.20;99.90
33741;DHT22;20065;48.380;10.892;2022-12-20T00:34:38;2.20;99.90
33741;DHT22;20065;48.380;10.892;2022-12-20T00:37:24;2.20;99.90
33741;DHT22;20065;48.380;10.892;2022-12-20T00:40:10;2.20;99.90
33741;DHT22;20065;48.380;10.892;2022-12-20T00:42:56;2.20;99.90
33741;DHT22;20065;48.380;10.892;2022-12-20T00:45:43;2.20;99.90
33741;DHT22;20065;48.380;10.892;2022-12-20T00:48:29;2.10;99.90
33741;DHT22;20065;48.380;10.892;2022-12-20T00:51:19;2.10;99.90
33741;DHT22;20065;48.380;10.892;2022-12-20T00:54:05;2.20;99.90
33741;DHT22;20065;48.380;10.892;2022-12-20T00:56:51;2.20;99.90
33741;DHT22;20065;48.380;10.892;2022-12-20T00:59:38;2.20;99.90
33741;DHT22;20065;48.380;10.892;2022-12-20T01:02:24;2.10;99.90
33741;DHT22;20065;48.380;10.892;2022-12-20T01:05:10;2.10;99.90
33741;DHT22;20065;48.380;10.892;2022-12-20T01:07:57;2.10;99.90
33741;DHT22;20065;48.380;10.892;2022-12-20T01:10:43;2.10;99.90
33741;DHT22;20065;48.380;10.892;2022-12-20T01:13:30;2.10;99.90
33741;DHT22;20065;48.380;10.892;2022-12-20T01:16:35;2.20;99.90
33741;DHT22;20065;48.380;10.892;2022-12-20T01:19:21;2.20;99.90
33741;DHT22;20065;48.380;10.892;2022-12-20T01:22:07;2.20;99.90
33741;DHT22;20065;48.380;10.892;2022-12-20T01:24:53;2.20;99.90
33741;DHT22;20065;48.380;10.892;2022-12-20T01:27:40;2.20;99.90
33741;DHT22;20065;48.380;10.892;2022-12-20T01:30:26;2.20;99.90
33741;DHT22;20065;48.380;10.892;2022-12-20T01:33:12;2.20;99.90
33741;DHT22;20065;48.380;10.892;2022-12-20T01:36:02;2.20;99.90
33741;DHT22;20065;48.380;10.892;2022-12-20T01:38:48;2.10;99.90
33741;DHT22;20065;48.380;10.892;2022-12-20T01:41:36;2.20;99.90
33741;DHT22;20065;48.380;10.892;2022-12-20T01:47:10;2.20;99.90
33741;DHT22;20065;48.380;10.892;2022-12-20T01:49:58;2.20;99.90
33741;DHT22;20065;48.380;10.892;2022-12-20T01:52:46;2.10;99.90
33741;DHT22;20065;48.380;10.892;2022-12-20T01:55:33;2.10;99.90
33741;DHT22;20065;48.380;10.892;2022-12-20T01:58:20;2.10;99.90
33741;DHT22;20065;48.380;10.892;2022-12-20T02:01:07;2.10;99.90
33741;DHT22;20065;48.380;10.892;2022-12-20T02:03:54;2.10;99.90
33741;DHT22;20065;48.380;10.892;2022-12-20T02:06:40;2.10;99.90
33741;DHT22;20065;48.380;10.892;2022-12-20T02:09:27;2.10;99.90
33741;DHT22;20065;48.380;10.892;2022-12-20T02:12:16;2.10;99.90
33741;DHT22;20065;48.380;10.892;2022-12-20T02:30:20;2.10;99.90
33741;DHT22;20065;48.380;10.892;2022-12-20T02:33:11;2.10;99.90
33741;DHT22;20065;48.380;10.892;2022-12-20T02:35:58;2.10;99.90
33741;DHT22;20065;48.380;10.892;2022-12-20T02:38:44;2.10;99.90
33741;DHT22;20065;48.380;10.892;2022-12-20T02:41:41;2.10;99.90
33741;DHT22;20065;48.380;10.892;2022-12-20T02:44:30;2.20;99.90
33741;DHT22;20065;48.380;10.892;2022-12-20T02:47:39;2.20;99.90
33741;DHT22;20065;48.380;10.892;2022-12-20T02:50:31;2.20;99.90
33741;DHT22;20065;48.380;10.892;2022-12-20T02:53:20;2.30;99.90
33741;DHT22;20065;48.380;10.892;2022-12-20T02:56:15;2.30;99.90
33741;DHT22;20065;48.380;10.892;2022-12-20T02:59:36;2.40;99.90
33741;DHT22;20065;48.380;10.892;2022-12-20T03:02:24;2.40;99.90
33741;DHT22;20065;48.380;10.892;2022-12-20T03:05:11;2.30;99.90
33741;DHT22;20065;48.380;10.892;2022-12-20T03:07:58;2.30;99.90
33741;DHT22;20065;48.380;10.892;2022-12-20T03:10:44;2.30;99.90
33741;DHT22;20065;48.380;10.892;2022-12-20T03:13:31;2.30;99.90
33741;DHT22;20065;48.380;10.892;2022-12-20T03:16:24;2.30;99.90
33741;DHT22;20065;48.380;10.892;2022-12-20T03:19:10;2.30;99.90
33741;DHT22;20065;48.380;10.892;2022-12-20T03:21:57;2.30;99.90
33741;DHT22;20065;48.380;10.892;2022-12-20T03:24:43;2.30;99.90
33741;DHT22;20065;48.380;10.892;2022-12-20T03:27:32;2.30;99.90
33741;DHT22;20065;48.380;10.892;2022-12-20T03:30:19;2.30;99.90
33741;DHT22;20065;48.380;10.892;2022-12-20T03:33:05;2.30;99.90
33741;DHT22;20065;48.380;10.892;2022-12-20T03:35:53;2.30;99.90
33741;DHT22;20065;48.380;10.892;2022-12-20T03:38:40;2.30;99.90
33741;DHT22;20065;48.380;10.892;2022-12-20T03:41:27;2.20;99.90
33741;DHT22;20065;48.380;10.892;2022-12-20T03:44:14;2.10;99.90
33741;DHT22;20065;48.380;10.892;2022-12-20T03:47:00;2.10;99.90
33741;DHT22;20065;48.380;10.892;2022-12-20T03:49:46;2.10;99.90
33741;DHT22;20065;48.380;10.892;2022-12-20T03:52:33;2.10;99.90
33741;DHT22;20065;48.380;10.892;2022-12-20T03:55:19;2.20;99.90
33741;DHT22;20065;48.380;10.892;2022-12-20T03:58:06;2.20;99.90
33741;DHT22;20065;48.380;10.892;2022-12-20T04:00:56;2.30;99.90
33741;DHT22;20065;48.380;10.892;2022-12-20T04:03:57;2.30;99.90
33741;DHT22;20065;48.380;10.892;2022-12-20T04:06:43;2.30;99.90
33741;DHT22;20065;48.380;10.892;2022-12-20T04:09:29;2.30;99.90
33741;DHT22;20065;48.380;10.892;2022-12-20T04:12:23;2.30;99.90
33741;DHT22;20065;48.380;10.892;2022-12-20T04:15:09;2.30;99.90
33741;DHT22;20065;48.380;10.892;2022-12-20T04:17:58;2.30;99.90
33741;DHT22;20065;48.380;10.892;2022-12-20T04:20:51;2.30;99.90
33741;DHT22;20065;48.380;10.892;2022-12-20T04:23:42;2.30;99.90
33741;DHT22;20065;48.380;10.892;2022-12-20T04:26:29;2.30;99.90
33741;DHT22;20065;48.380;10.892;2022-12-20T04:29:18;2.30;99.90
33741;DHT22;20065;48.380;10.892;2022-12-20T04:32:05;2.30;99.90
33741;DHT22;20065;48.380;10.892;2022-12-20T04:34:51;2.30;99.90
33741;DHT22;20065;48.380;10.892;2022-12-20T04:37:38;2.30;99.90
33741;DHT22;20065;48.380;10.892;2022-12-20T04:40:25;2.40;99.90
33741;DHT22;20065;48.380;10.892;2022-12-20T04:43:15;2.40;99.90
33741;DHT22;20065;48.380;10.892;2022-12-20T04:46:02;2.50;99.90
33741;DHT22;20065;48.380;10.892;2022-12-20T04:48:48;2.50;99.90
33741;DHT22;20065;48.380;10.892;2022-12-20T04:51:34;2.50;99.90
33741;DHT22;20065;48.380;10.892;2022-12-20T04:54:25;2.40;99.90
33741;DHT22;20065;48.380;10.892;2022-12-20T04:57:18;2.30;99.90
33741;DHT22;20065;48.380;10.892;2022-12-20T05:00:05;2.20;99.90
33741;DHT22;20065;48.380;10.892;2022-12-20T05:02:52;2.10;99.90
33741;DHT22;20065;48.380;10.892;2022-12-20T05:05:40;2.00;99.90
33741;DHT22;20065;48.380;10.892;2022-12-20T05:08:26;2.00;99.90
33741;DHT22;20065;48.380;10.892;2022-12-20T05:11:13;1.90;99.90
33741;DHT22;20065;48.380;10.892;2022-12-20T05:13:59;2.00;99.90
33741;DHT22;20065;48.380;10.892;2022-12-20T05:16:45;2.10;99.90
33741;DHT22;20065;48.380;10.892;2022-12-20T05:19:31;2.10;99.90
33741;DHT22;20065;48.380;10.892;2022-12-20T05:22:18;2.20;99.90
33741;DHT22;20065;48.380;10.892;2022-12-20T05:25:29;2.20;99.90
33741;DHT22;20065;48.380;10.892;2022-12-20T05:28:35;2.30;99.90
33741;DHT22;20065;48.380;10.892;2022-12-20T05:31:21;2.40;99.90
33741;DHT22;20065;48.380;10.892;2022-12-20T05:34:07;2.50;99.90
33741;DHT22;20065;48.380;10.892;2022-12-20T05:36:56;2.50;99.90
33741;DHT22;20065;48.380;10.892;2022-12-20T05:39:45;2.60;99.90
33741;DHT22;20065;48.380;10.892;2022-12-20T05:42:37;2.50;99.90
33741;DHT22;20065;48.380;10.892;2022-12-20T05:45:24;2.50;99.90
33741;DHT22;20065;48.380;10.892;2022-12-20T05:48:18;2.50;99.90
33741;DHT22;20065;48.380;10.892;2022-12-20T05:51:08;2.40;99.90
33741;DHT22;20065;48.380;10.892;2022-12-20T05:54:07;2.30;99.90
33741;DHT22;20065;48.380;10.892;2022-12-20T05:57:04;2.30;99.90
33741;DHT22;20065;48.380;10.892;2022-12-20T05:59:58;2.20;99.90
33741;DHT22;20065;48.380;10.892;2022-12-20T06:02:45;2.20;99.90
33741;DHT22;20065;48.380;10.892;2022-12-20T06:05:31;2.20;99.90
33741;DHT22;20065;48.380;10.892;2022-12-20T06:08:19;2.20;99.90
33741;DHT22;20065;48.380;10.892;2022-12-20T06:11:06;2.30;99.90
33741;DHT22;20065;48.380;10.892;2022-12-20T06:14:01;2.40;99.90
33741;DHT22;20065;48.380;10.892;2022-12-20T06:16:47;2.50;99.90
33741;DHT22;20065;48.380;10.892;2022-12-20T06:19:36;2.50;99.90
33741;DHT22;20065;48.380;10.892;2022-12-20T06:22:22;2.60;99.90
33741;DHT22;20065;48.380;10.892;2022-12-20T06:25:13;2.60;99.90
33741;DHT22;20065;48.380;10.892;2022-12-20T06:28:00;2.60;99.90
33741;DHT22;20065;48.380;10.892;2022-12-20T06:30:54;2.60;99.90
33741;DHT22;20065;48.380;10.892;2022-12-20T06:34:00;2.70;99.90
33741;DHT22;20065;48.380;10.892;2022-12-20T06:36:51;2.70;99.90
33741;DHT22;20065;48.380;10.892;2022-12-20T06:39:42;2.80;99.90
33741;DHT22;20065;48.380;10.892;2022-12-20T06:42:28;2.80;99.90
33741;DHT22;20065;48.380;10.892;2022-12-20T06:45:15;2.90;99.90
33741;DHT22;20065;48.380;10.892;2022-12-20T06:48:01;2.90;99.90
33741;DHT22;20065;48.380;10.892;2022-12-20T06:50:50;3.00;99.90
33741;DHT22;20065;48.380;10.892;2022-12-20T06:53:38;3.00;99.90
33741;DHT22;20065;48.380;10.892;2022-12-20T06:56:25;3.10;99.90
33741;DHT22;20065;48.380;10.892;2022-12-20T06:59:12;3.10;99.90
33741;DHT22;20065;48.380;10.892;2022-12-20T07:01:58;3.20;99.90
33741;DHT22;20065;48.380;10.892;2022-12-20T07:04:44;3.20;99.90
33741;DHT22;20065;48.380;10.892;2022-12-20T07:07:31;3.10;99.90
33741;DHT22;20065;48.380;10.892;2022-12-20T07:10:17;3.10;99.90
33741;DHT22;20065;48.380;10.892;2022-12-20T07:13:03;3.10;99.90
33741;DHT22;20065;48.380;10.892;2022-12-20T07:15:59;3.00;99.90
33741;DHT22;20065;48.380;10.892;2022-12-20T07:18:51;3.10;99.90
33741;DHT22;20065;48.380;10.892;2022-12-20T07:21:38;3.00;99.90
33741;DHT22;20065;48.380;10.892;2022-12-20T07:24:24;3.00;99.90
33741;DHT22;20065;48.380;10.892;2022-12-20T07:27:10;3.00;99.90
33741;DHT22;20065;48.380;10.892;2022-12-20T07:29:56;3.00;99.90
33741;DHT22;20065;48.380;10.892;2022-12-20T07:32:43;3.00;99.90
33741;DHT22;20065;48.380;10.892;2022-12-20T07:35:29;3.00;99.90
33741;DHT22;20065;48.380;10.892;2022-12-20T07:38:15;3.10;99.90
33741;DHT22;20065;48.380;10.892;2022-12-20T07:41:09;3.20;99.90
33741;DHT22;20065;48.380;10.892;2022-12-20T07:43:56;3.20;99.90
33741;DHT22;20065;48.380;10.892;2022-12-20T07:46:44;3.20;99.90
33741;DHT22;20065;48.380;10.892;2022-12-20T07:49:30;3.20;99.90
33741;DHT22;20065;48.380;10.892;2022-12-20T07:52:20;3.20;99.90
33741;DHT22;20065;48.380;10.892;2022-12-20T07:55:10;3.20;99.90
33741;DHT22;20065;48.380;10.892;2022-12-20T07:58:01;3.20;99.90
33741;DHT22;20065;48.380;10.892;2022-12-20T08:00:50;3.30;99.90
33741;DHT22;20065;48.380;10.892;2022-12-20T08:03:41;3.30;99.90
33741;DHT22;20065;48.380;10.892;2022-12-20T08:06:29;3.30;99.90
33741;DHT22;20065;48.380;10.892;2022-12-20T08:09:17;3.40;99.90
33741;DHT22;20065;48.380;10.892;2022-12-20T08:12:06;3.50;99.90
33741;DHT22;20065;48.380;10.892;2022-12-20T08:14:54;3.50;99.90
33741;DHT22;20065;48.380;10.892;2022-12-20T08:17:42;3.60;99.90
33741;DHT22;20065;48.380;10.892;2022-12-20T08:20:28;3.70;99.90
33741;DHT22;20065;48.380;10.892;2022-12-20T08:23:15;3.70;99.90
33741;DHT22;20065;48.380;10.892;2022-12-20T08:26:01;3.80;99.90
33741;DHT22;20065;48.380;10.892;2022-12-20T08:28:47;3.90;99.90
33741;DHT22;20065;48.380;10.892;2022-12-20T08:31:38;3.90;99.90
33741;DHT22;20065;48.380;10.892;2022-12-20T08:34:24;3.90;99.90
33741;DHT22;20065;48.380;10.892;2022-12-20T08:37:11;4.00;99.90
33741;DHT22;20065;48.380;10.892;2022-12-20T08:39:57;4.00;99.90
33741;DHT22;20065;48.380;10.892;2022-12-20T08:42:43;4.00;99.90
33741;DHT22;20065;48.380;10.892;2022-12-20T08:45:29;4.10;99.90
33741;DHT22;20065;48.380;10.892;2022-12-20T08:48:16;4.20;99.90
33741;DHT22;20065;48.380;10.892;2022-12-20T08:51:05;4.20;99.90
33741;DHT22;20065;48.380;10.892;2022-12-20T08:53:52;4.30;99.90
33741;DHT22;20065;48.380;10.892;2022-12-20T08:56:38;4.40;99.90
33741;DHT22;20065;48.380;10.892;2022-12-20T08:59:24;4.40;99.90
33741;DHT22;20065;48.380;10.892;2022-12-20T09:02:11;4.50;99.90
33741;DHT22;20065;48.380;10.892;2022-12-20T09:04:58;4.60;99.90
33741;DHT22;20065;48.380;10.892;2022-12-20T09:07:44;4.60;99.90
33741;DHT22;20065;48.380;10.892;2022-12-20T09:10:30;4.60;99.90
33741;DHT22;20065;48.380;10.892;2022-12-20T09:13:16;4.70;99.90
33741;DHT22;20065;48.380;10.892;2022-12-20T09:16:03;4.80;99.90
33741;DHT22;20065;48.380;10.892;2022-12-20T09:18:51;4.80;99.90
33741;DHT22;20065;48.380;10.892;2022-12-20T09:21:37;4.90;99.90
33741;DHT22;20065;48.380;10.892;2022-12-20T09:24:24;5.00;99.90
33741;DHT22;20065;48.380;10.892;2022-12-20T09:27:10;5.00;99.90
33741;DHT22;20065;48.380;10.892;2022-12-20T09:29:56;5.10;99.90
33741;DHT22;20065;48.380;10.892;2022-12-20T09:32:42;5.10;99.90
33741;DHT22;20065;48.380;10.892;2022-12-20T09:35:28;5.10;99.90
33741;DHT22;20065;48.380;10.892;2022-12-20T09:38:15;5.20;99.90
33741;DHT22;20065;48.380;10.892;2022-12-20T09:41:03;5.20;99.90
33741;DHT22;20065;48.380;10.892;2022-12-20T09:43:50;5.20;99.90
33741;DHT22;20065;48.380;10.892;2022-12-20T09:46:38;5.20;99.90
33741;DHT22;20065;48.380;10.892;2022-12-20T09:49:33;5.20;99.90
33741;DHT22;20065;48.380;10.892;2022-12-20T09:52:27;5.20;99.90
33741;DHT22;20065;48.380;10.892;2022-12-20T09:58:36;5.10;99.90
33741;DHT22;20065;48.380;10.892;2022-12-20T10:01:29;5.10;99.90
33741;DHT22;20065;48.380;10.892;2022-12-20T10:04:24;5.10;99.90
33741;DHT22;20065;48.380;10.892;2022-12-20T10:08:09;5.20;99.90
33741;DHT22;20065;48.380;10.892;2022-12-20T10:17:19;5.30;99.90
33741;DHT22;20065;48.380;10.892;2022-12-20T10:20:51;5.40;99.90
33741;DHT22;20065;48.380;10.892;2022-12-20T10:23:56;5.50;99.90
33741;DHT22;20065;48.380;10.892;2022-12-20T10:26:49;5.60;99.90
33741;DHT22;20065;48.380;10.892;2022-12-20T10:29:35;5.70;99.90
33741;DHT22;20065;48.380;10.892;2022-12-20T10:32:22;5.70;99.90
33741;DHT22;20065;48.380;10.892;2022-12-20T10:40:44;6.00;99.90
33741;DHT22;20065;48.380;10.892;2022-12-20T10:43:47;6.10;99.90
33741;DHT22;20065;48.380;10.892;2022-12-20T10:46:43;6.20;99.90
33741;DHT22;20065;48.380;10.892;2022-12-20T10:49:34;6.30;99.90
33741;DHT22;20065;48.380;10.892;2022-12-20T10:52:21;6.40;99.90
33741;DHT22;20065;48.380;10.892;2022-12-20T10:55:37;6.40;99.90
33741;DHT22;20065;48.380;10.892;2022-12-20T11:01:15;6.40;99.90
33741;DHT22;20065;48.380;10.892;2022-12-20T11:07:24;6.40;99.90
33741;DHT22;20065;48.380;10.892;2022-12-20T11:10:26;6.40;99.90
33741;DHT22;20065;48.380;10.892;2022-12-20T11:13:24;6.40;99.90
33741;DHT22;20065;48.380;10.892;2022-12-20T11:26:19;6.40;99.90
33741;DHT22;20065;48.380;10.892;2022-12-20T11:32:39;6.30;99.90
33741;DHT22;20065;48.380;10.892;2022-12-20T11:35:49;6.20;99.90
33741;DHT22;20065;48.380;10.892;2022-12-20T11:42:05;6.00;99.90
33741;DHT22;20065;48.380;10.892;2022-12-20T11:45:14;5.90;99.90
33741;DHT22;20065;48.380;10.892;2022-12-20T11:51:22;6.20;99.90
33741;DHT22;20065;48.380;10.892;2022-12-20T11:57:21;6.40;99.90
33741;DHT22;20065;48.380;10.892;2022-12-20T12:00:14;6.40;99.90
33741;DHT22;20065;48.380;10.892;2022-12-20T12:03:09;6.30;99.90
33741;DHT22;20065;48.380;10.892;2022-12-20T12:12:56;6.30;99.90
33741;DHT22;20065;48.380;10.892;2022-12-20T12:18:51;6.40;99.90
33741;DHT22;20065;48.380;10.892;2022-12-20T12:21:45;6.40;99.90
33741;DHT22;20065;48.380;10.892;2022-12-20T12:24:42;6.40;99.90
33741;DHT22;20065;48.380;10.892;2022-12-20T12:27:28;6.40;99.90
33741;DHT22;20065;48.380;10.892;2022-12-20T12:30:15;6.30;99.90
33741;DHT22;20065;48.380;10.892;2022-12-20T12:33:09;6.40;99.90
33741;DHT22;20065;48.380;10.892;2022-12-20T12:36:17;6.50;99.90
33741;DHT22;20065;48.380;10.892;2022-12-20T12:42:36;6.80;99.90
33741;DHT22;20065;48.380;10.892;2022-12-20T12:48:34;7.00;99.90
33741;DHT22;20065;48.380;10.892;2022-12-20T12:51:48;7.00;99.90
33741;DHT22;20065;48.380;10.892;2022-12-20T12:54:37;6.90;99.90
33741;DHT22;20065;48.380;10.892;2022-12-20T12:57:24;6.90;99.90
33741;DHT22;20065;48.380;10.892;2022-12-20T13:01:45;6.90;99.90
33741;DHT22;20065;48.380;10.892;2022-12-20T13:06:42;6.80;99.90
33741;DHT22;20065;48.380;10.892;2022-12-20T13:09:39;6.80;99.90
33741;DHT22;20065;48.380;10.892;2022-12-20T13:16:04;6.80;99.90
33741;DHT22;20065;48.380;10.892;2022-12-20T13:19:07;6.80;99.90
33741;DHT22;20065;48.380;10.892;2022-12-20T13:24:56;6.80;99.90
33741;DHT22;20065;48.380;10.892;2022-12-20T13:27:43;6.70;99.90
33741;DHT22;20065;48.380;10.892;2022-12-20T13:30:29;6.70;99.90
33741;DHT22;20065;48.380;10.892;2022-12-20T13:33:21;6.70;99.90
33741;DHT22;20065;48.380;10.892;2022-12-20T13:42:26;7.00;99.90
33741;DHT22;20065;48.380;10.892;2022-12-20T13:45:19;7.10;99.90
33741;DHT22;20065;48.380;10.892;2022-12-20T13:48:06;7.20;99.90
33741;DHT22;20065;48.380;10.892;2022-12-20T13:50:57;7.20;99.90
33741;DHT22;20065;48.380;10.892;2022-12-20T13:54:00;7.20;99.90
33741;DHT22;20065;48.380;10.892;2022-12-20T13:56:49;7.20;99.90
33741;DHT22;20065;48.380;10.892;2022-12-20T13:59:35;7.10;99.90
33741;DHT22;20065;48.380;10.892;2022-12-20T14:02:32;7.10;99.90
33741;DHT22;20065;48.380;10.892;2022-12-20T14:05:22;7.00;99.90
33741;DHT22;20065;48.380;10.892;2022-12-20T14:08:17;6.90;99.90
33741;DHT22;20065;48.380;10.892;2022-12-20T14:11:15;6.80;99.90
33741;DHT22;20065;48.380;10.892;2022-12-20T14:14:10;6.60;99.90
33741;DHT22;20065;48.380;10.892;2022-12-20T14:20:14;6.30;99.90
33741;DHT22;20065;48.380;10.892;2022-12-20T14:25:57;6.20;99.90
33741;DHT22;20065;48.380;10.892;2022-12-20T14:28:50;6.10;99.90
33741;DHT22;20065;48.380;10.892;2022-12-20T14:31:40;6.10;99.90
33741;DHT22;20065;48.380;10.892;2022-12-20T14:34:29;6.00;99.90
33741;DHT22;20065;48.380;10.892;2022-12-20T14:37:32;5.80;99.90
33741;DHT22;20065;48.380;10.892;2022-12-20T14:40:22;5.90;99.90
33741;DHT22;20065;48.380;10.892;2022-12-20T14:43:23;5.90;99.90
33741;DHT22;20065;48.380;10.892;2022-12-20T14:46:18;5.90;99.90
33741;DHT22;20065;48.380;10.892;2022-12-20T14:55:01;5.70;99.90
33741;DHT22;20065;48.380;10.892;2022-12-20T14:57:49;5.60;99.90
33741;DHT22;20065;48.380;10.892;2022-12-20T15:00:37;5.50;99.90
33741;DHT22;20065;48.380;10.892;2022-12-20T15:03:26;5.50;99.90
33741;DHT22;20065;48.380;10.892;2022-12-20T15:09:20;5.50;99.90
33741;DHT22;20065;48.380;10.892;2022-12-20T15:12:06;5.50;99.90
33741;DHT22;20065;48.380;10.892;2022-12-20T15:14:54;5.40;99.90
33741;DHT22;20065;48.380;10.892;2022-12-20T15:17:40;5.40;99.90
33741;DHT22;20065;48.380;10.892;2022-12-20T15:20:26;5.40;99.90
33741;DHT22;20065;48.380;10.892;2022-12-20T15:23:20;5.20;99.90
33741;DHT22;20065;48.380;10.892;2022-12-20T15:26:09;5.20;99.90
33741;DHT22;20065;48.380;10.892;2022-12-20T15:28:59;5.20;99.90
33741;DHT22;20065;48.380;10.892;2022-12-20T15:31:45;5.30;99.90
33741;DHT22;20065;48.380;10.892;2022-12-20T15:34:38;5.40;99.90
33741;DHT22;20065;48.380;10.892;2022-12-20T15:37:25;5.50;99.90
33741;DHT22;20065;48.380;10.892;2022-12-20T15:40:14;5.50;99.90
33741;DHT22;20065;48.380;10.892;2022-12-20T15:43:00;5.60;99.90
33741;DHT22;20065;48.380;10.892;2022-12-20T15:45:51;5.60;99.90
33741;DHT22;20065;48.380;10.892;2022-12-20T15:48:38;5.60;99.90
33741;DHT22;20065;48.380;10.892;2022-12-20T15:51:35;5.60;99.90
33741;DHT22;20065;48.380;10.892;2022-12-20T15:57:13;5.60;99.90
33741;DHT22;20065;48.380;10.892;2022-12-20T15:59:59;5.60;99.90
33741;DHT22;20065;48.380;10.892;2022-12-20T16:02:46;5.60;99.90
33741;DHT22;20065;48.380;10.892;2022-12-20T16:05:34;5.50;99.90
33741;DHT22;20065;48.380;10.892;2022-12-20T16:12:15;5.60;99.90
33741;DHT22;20065;48.380;10.892;2022-12-20T16:15:19;5.60;99.90
33741;DHT22;20065;48.380;10.892;2022-12-20T16:18:06;5.60;99.90
33741;DHT22;20065;48.380;10.892;2022-12-20T16:20:54;5.60;99.90
33741;DHT22;20065;48.380;10.892;2022-12-20T16:23:41;5.50;99.90
33741;DHT22;20065;48.380;10.892;2022-12-20T16:26:28;5.40;99.90
33741;DHT22;20065;48.380;10.892;2022-12-20T16:29:14;5.30;99.90
33741;DHT22;20065;48.380;10.892;2022-12-20T16:32:00;5.20;99.90
33741;DHT22;20065;48.380;10.892;2022-12-20T16:34:50;5.20;99.90
33741;DHT22;20065;48.380;10.892;2022-12-20T16:37:36;5.20;99.90
33741;DHT22;20065;48.380;10.892;2022-12-20T16:40:25;5.20;99.90
33741;DHT22;20065;48.380;10.892;2022-12-20T16:43:13;5.40;99.90
33741;DHT22;20065;48.380;10.892;2022-12-20T16:46:00;5.40;99.90
33741;DHT22;20065;48.380;10.892;2022-12-20T16:48:46;5.40;99.90
33741;DHT22;20065;48.380;10.892;2022-12-20T16:54:21;5.50;99.90
33741;DHT22;20065;48.380;10.892;2022-12-20T16:57:08;5.50;99.90
33741;DHT22;20065;48.380;10.892;2022-12-20T16:59:56;5.60;99.90
33741;DHT22;20065;48.380;10.892;2022-12-20T17:02:42;5.60;99.90
33741;DHT22;20065;48.380;10.892;2022-12-20T17:05:31;5.50;99.90
33741;DHT22;20065;48.380;10.892;2022-12-20T17:08:17;5.60;99.90
33741;DHT22;20065;48.380;10.892;2022-12-20T17:13:58;5.60;99.90
33741;DHT22;20065;48.380;10.892;2022-12-20T17:16:44;5.50;99.90
33741;DHT22;20065;48.380;10.892;2022-12-20T17:19:30;5.50;99.90
33741;DHT22;20065;48.380;10.892;2022-12-20T17:22:17;5.50;99.90
33741;DHT22;20065;48.380;10.892;2022-12-20T17:25:31;5.60;99.90
33741;DHT22;20065;48.380;10.892;2022-12-20T17:28:18;5.60;99.90
33741;DHT22;20065;48.380;10.892;2022-12-20T17:31:35;5.60;99.90
33741;DHT22;20065;48.380;10.892;2022-12-20T17:34:26;5.50;99.90
33741;DHT22;20065;48.380;10.892;2022-12-20T17:37:13;5.50;99.90
33741;DHT22;20065;48.380;10.892;2022-12-20T17:39:59;5.50;99.90
33741;DHT22;20065;48.380;10.892;2022-12-20T17:42:52;5.50;99.90
33741;DHT22;20065;48.380;10.892;2022-12-20T17:45:38;5.50;99.90
33741;DHT22;20065;48.380;10.892;2022-12-20T17:48:24;5.40;99.90
33741;DHT22;20065;48.380;10.892;2022-12-20T17:51:16;5.50;99.90
33741;DHT22;20065;48.380;10.892;2022-12-20T17:54:02;5.40;99.90
33741;DHT22;20065;48.380;10.892;2022-12-20T17:56:49;5.40;99.90
33741;DHT22;20065;48.380;10.892;2022-12-20T17:59:36;5.40;99.90
33741;DHT22;20065;48.380;10.892;2022-12-20T18:02:23;5.30;99.90
33741;DHT22;20065;48.380;10.892;2022-12-20T18:05:11;5.30;99.90
33741;DHT22;20065;48.380;10.892;2022-12-20T18:07:58;5.20;99.90
33741;DHT22;20065;48.380;10.892;2022-12-20T18:10:44;5.20;99.90
33741;DHT22;20065;48.380;10.892;2022-12-20T18:13:30;5.20;99.90
33741;DHT22;20065;48.380;10.892;2022-12-20T18:16:23;5.20;99.90
33741;DHT22;20065;48.380;10.892;2022-12-20T18:19:17;5.20;99.90
33741;DHT22;20065;48.380;10.892;2022-12-20T18:22:03;5.10;99.90
33741;DHT22;20065;48.380;10.892;2022-12-20T18:24:49;5.10;99.90
33741;DHT22;20065;48.380;10.892;2022-12-20T18:27:37;5.10;99.90
33741;DHT22;20065;48.380;10.892;2022-12-20T18:30:24;5.20;99.90
33741;DHT22;20065;48.380;10.892;2022-12-20T18:33:11;5.20;99.90
33741;DHT22;20065;48.380;10.892;2022-12-20T18:38:51;5.10;99.90
33741;DHT22;20065;48.380;10.892;2022-12-20T18:41:42;5.00;99.90
33741;DHT22;20065;48.380;10.892;2022-12-20T18:44:29;5.00;99.90
33741;DHT22;20065;48.380;10.892;2022-12-20T18:47:20;5.00;99.90
33741;DHT22;20065;48.380;10.892;2022-12-20T18:50:06;5.10;99.90
33741;DHT22;20065;48.380;10.892;2022-12-20T18:52:54;5.10;99.90
33741;DHT22;20065;48.380;10.892;2022-12-20T18:55:40;5.10;99.90
33741;DHT22;20065;48.380;10.892;2022-12-20T18:58:26;5.10;99.90
33741;DHT22;20065;48.380;10.892;2022-12-20T19:01:18;5.10;99.90
33741;DHT22;20065;48.380;10.892;2022-12-20T19:04:05;5.10;99.90
33741;DHT22;20065;48.380;10.892;2022-12-20T19:06:52;5.10;99.90
33741;DHT22;20065;48.380;10.892;2022-12-20T19:09:38;5.10;99.90
33741;DHT22;20065;48.380;10.892;2022-12-20T19:12:24;5.20;99.90
33741;DHT22;20065;48.380;10.892;2022-12-20T19:15:10;5.20;99.90
33741;DHT22;20065;48.380;10.892;2022-12-20T19:17:56;5.30;99.90
33741;DHT22;20065;48.380;10.892;2022-12-20T19:20:43;5.30;99.90
33741;DHT22;20065;48.380;10.892;2022-12-20T19:23:29;5.30;99.90
33741;DHT22;20065;48.380;10.892;2022-12-20T19:26:16;5.30;99.90
33741;DHT22;20065;48.380;10.892;2022-12-20T19:29:03;5.20;99.90
33741;DHT22;20065;48.380;10.892;2022-12-20T19:31:50;5.30;99.90
33741;DHT22;20065;48.380;10.892;2022-12-20T19:34:36;5.20;99.90
33741;DHT22;20065;48.380;10.892;2022-12-20T19:37:22;5.20;99.90
33741;DHT22;20065;48.380;10.892;2022-12-20T19:40:11;5.20;99.90
33741;DHT22;20065;48.380;10.892;2022-12-20T19:42:58;5.20;99.90
33741;DHT22;20065;48.380;10.892;2022-12-20T19:45:44;5.20;99.90
33741;DHT22;20065;48.380;10.892;2022-12-20T19:48:34;5.30;99.90
33741;DHT22;20065;48.380;10.892;2022-12-20T19:51:21;5.20;99.90
33741;DHT22;20065;48.380;10.892;2022-12-20T19:54:08;5.30;99.90
33741;DHT22;20065;48.380;10.892;2022-12-20T19:56:55;5.30;99.90